sensor_id;sensor_type;location;lat;lon;timestamp;P1;durP1;ratioP1;P2;durP2;ratioP2
11614;SDS011;5863;52.832;4.758;2024-01-15T00:01:09;13.90;;;2.27;;
11614;SDS011;5863;52.832;4.758;2024-01-15T00:03:35;11.87;;;2.00;;
11614;SDS011;5863;52.832;4.758;2024-01-15T00:06:04;5.27;;;1.90;;
11614;SDS011;5863;52.832;4.758;2024-01-15T00:08:31;7.60;;;2.10;;
11614;SDS011;5863;52.832;4.758;2024-01-15T00:10:58;9.93;;;1.90;;
11614;SDS011;5863;52.832;4.758;2024-01-15T00:13:25;6.43;;;1.30;;
11614;SDS011;5863;52.832;4.758;2024-01-15T00:15:52;7.90;;;1.90;;
11614;SDS011;5863;52.832;4.758;2024-01-15T00:18:18;9.10;;;2.00;;
11614;SDS011;5863;52.832;4.758;2024-01-15T00:20:45;12.80;;;1.90;;
11614;SDS011;5863;52.832;4.758;2024-01-15T00:23:13;9.67;;;2.17;;
11614;SDS011;5863;52.832;4.758;2024-01-15T00:25:40;13.93;;;2.70;;
11614;SDS011;5863;52.832;4.758;2024-01-15T00:28:07;8.80;;;1.60;;
11614;SDS011;5863;52.832;4.758;2024-01-15T00:30:34;9.30;;;2.10;;
11614;SDS011;5863;52.832;4.758;2024-01-15T00:33:01;10.17;;;2.13;;
11614;SDS011;5863;52.832;4.758;2024-01-15T00:35:28;6.47;;;1.73;;
11614;SDS011;5863;52.832;4.758;2024-01-15T00:37:55;7.53;;;1.80;;
11614;SDS011;5863;52.832;4.758;2024-01-15T00:40:23;4.67;;;1.53;;
11614;SDS011;5863;52.832;4.758;2024-01-15T00:42:51;8.90;;;1.70;;
11614;SDS011;5863;52.832;4.758;2024-01-15T00:45:18;7.97;;;1.63;;
11614;SDS011;5863;52.832;4.758;2024-01-15T00:47:44;15.97;;;2.20;;
11614;SDS011;5863;52.832;4.758;2024-01-15T00:50:11;3.80;;;1.60;;
11614;SDS011;5863;52.832;4.758;2024-01-15T00:52:38;7.17;;;2.17;;
11614;SDS011;5863;52.832;4.758;2024-01-15T00:55:06;10.77;;;2.00;;
11614;SDS011;5863;52.832;4.758;2024-01-15T00:57:34;12.30;;;1.90;;
11614;SDS011;5863;52.832;4.758;2024-01-15T01:00:01;12.03;;;2.40;;
11614;SDS011;5863;52.832;4.758;2024-01-15T01:02:29;11.50;;;2.30;;
11614;SDS011;5863;52.832;4.758;2024-01-15T01:04:55;11.87;;;2.30;;
11614;SDS011;5863;52.832;4.758;2024-01-15T01:07:22;11.83;;;1.83;;
11614;SDS011;5863;52.832;4.758;2024-01-15T01:09:49;7.37;;;1.53;;
11614;SDS011;5863;52.832;4.758;2024-01-15T01:12:16;10.53;;;2.00;;
11614;SDS011;5863;52.832;4.758;2024-01-15T01:14:44;6.27;;;1.53;;
11614;SDS011;5863;52.832;4.758;2024-01-15T01:17:11;12.57;;;1.70;;
11614;SDS011;5863;52.832;4.758;2024-01-15T01:19:38;13.23;;;1.87;;
11614;SDS011;5863;52.832;4.758;2024-01-15T01:22:05;9.37;;;2.33;;
11614;SDS011;5863;52.832;4.758;2024-01-15T01:24:32;10.10;;;1.90;;
11614;SDS011;5863;52.832;4.758;2024-01-15T01:26:59;11.73;;;2.50;;
11614;SDS011;5863;52.832;4.758;2024-01-15T01:29:26;10.70;;;2.20;;
11614;SDS011;5863;52.832;4.758;2024-01-15T01:31:54;14.20;;;2.47;;
11614;SDS011;5863;52.832;4.758;2024-01-15T01:34:21;8.23;;;2.10;;
11614;SDS011;5863;52.832;4.758;2024-01-15T01:36:48;9.60;;;2.57;;
11614;SDS011;5863;52.832;4.758;2024-01-15T01:39:15;10.17;;;1.90;;
11614;SDS011;5863;52.832;4.758;2024-01-15T01:41:42;9.93;;;2.33;;
11614;SDS011;5863;52.832;4.758;2024-01-15T01:44:09;10.23;;;1.90;;
11614;SDS011;5863;52.832;4.758;2024-01-15T01:46:36;8.60;;;1.90;;
11614;SDS011;5863;52.832;4.758;2024-01-15T01:49:06;12.43;;;2.60;;
11614;SDS011;5863;52.832;4.758;2024-01-15T01:51:35;13.57;;;2.20;;
11614;SDS011;5863;52.832;4.758;2024-01-15T01:54:02;16.40;;;2.67;;
11614;SDS011;5863;52.832;4.758;2024-01-15T01:56:30;10.00;;;2.10;;
11614;SDS011;5863;52.832;4.758;2024-01-15T01:58:57;15.83;;;2.40;;
11614;SDS011;5863;52.832;4.758;2024-01-15T02:01:24;7.67;;;1.87;;
11614;SDS011;5863;52.832;4.758;2024-01-15T02:03:51;6.70;;;1.70;;
11614;SDS011;5863;52.832;4.758;2024-01-15T02:06:19;7.37;;;1.40;;
11614;SDS011;5863;52.832;4.758;2024-01-15T02:08:46;10.20;;;1.70;;
11614;SDS011;5863;52.832;4.758;2024-01-15T02:11:13;7.37;;;1.37;;
11614;SDS011;5863;52.832;4.758;2024-01-15T02:13:40;3.83;;;1.10;;
11614;SDS011;5863;52.832;4.758;2024-01-15T02:16:07;6.17;;;1.07;;
11614;SDS011;5863;52.832;4.758;2024-01-15T02:18:40;8.87;;;1.40;;
11614;SDS011;5863;52.832;4.758;2024-01-15T02:21:07;7.93;;;1.93;;
11614;SDS011;5863;52.832;4.758;2024-01-15T02:23:36;9.87;;;1.90;;
11614;SDS011;5863;52.832;4.758;2024-01-15T02:26:04;11.10;;;2.13;;
11614;SDS011;5863;52.832;4.758;2024-01-15T02:28:31;5.53;;;1.50;;
11614;SDS011;5863;52.832;4.758;2024-01-15T02:30:59;11.63;;;2.47;;
11614;SDS011;5863;52.832;4.758;2024-01-15T02:33:26;15.47;;;2.40;;
11614;SDS011;5863;52.832;4.758;2024-01-15T02:35:53;12.70;;;2.50;;
11614;SDS011;5863;52.832;4.758;2024-01-15T02:38:20;14.83;;;2.20;;
11614;SDS011;5863;52.832;4.758;2024-01-15T02:40:49;9.07;;;2.13;;
11614;SDS011;5863;52.832;4.758;2024-01-15T02:43:16;11.13;;;2.20;;
11614;SDS011;5863;52.832;4.758;2024-01-15T02:45:44;12.43;;;1.90;;
11614;SDS011;5863;52.832;4.758;2024-01-15T02:48:11;11.50;;;2.13;;
11614;SDS011;5863;52.832;4.758;2024-01-15T02:50:38;12.60;;;2.17;;
11614;SDS011;5863;52.832;4.758;2024-01-15T02:53:05;9.67;;;2.33;;
11614;SDS011;5863;52.832;4.758;2024-01-15T02:55:32;13.53;;;1.97;;
11614;SDS011;5863;52.832;4.758;2024-01-15T02:58:00;7.63;;;1.90;;
11614;SDS011;5863;52.832;4.758;2024-01-15T03:00:27;7.90;;;2.07;;
11614;SDS011;5863;52.832;4.758;2024-01-15T03:02:54;7.90;;;1.63;;
11614;SDS011;5863;52.832;4.758;2024-01-15T03:05:21;8.37;;;1.20;;
11614;SDS011;5863;52.832;4.758;2024-01-15T03:07:48;7.07;;;1.50;;
11614;SDS011;5863;52.832;4.758;2024-01-15T03:10:15;9.53;;;1.73;;
11614;SDS011;5863;52.832;4.758;2024-01-15T03:12:42;11.10;;;2.13;;
11614;SDS011;5863;52.832;4.758;2024-01-15T03:15:10;6.17;;;2.07;;
11614;SDS011;5863;52.832;4.758;2024-01-15T03:17:37;13.90;;;2.60;;
11614;SDS011;5863;52.832;4.758;2024-01-15T03:20:05;11.87;;;2.40;;
11614;SDS011;5863;52.832;4.758;2024-01-15T03:22:32;11.63;;;2.20;;
11614;SDS011;5863;52.832;4.758;2024-01-15T03:24:59;8.23;;;1.83;;
11614;SDS011;5863;52.832;4.758;2024-01-15T03:27:26;8.37;;;2.20;;
11614;SDS011;5863;52.832;4.758;2024-01-15T03:29:53;12.07;;;2.30;;
11614;SDS011;5863;52.832;4.758;2024-01-15T03:32:21;8.87;;;2.17;;
11614;SDS011;5863;52.832;4.758;2024-01-15T03:34:48;13.23;;;2.50;;
11614;SDS011;5863;52.832;4.758;2024-01-15T03:37:14;13.47;;;2.00;;
11614;SDS011;5863;52.832;4.758;2024-01-15T03:39:41;7.23;;;1.97;;
11614;SDS011;5863;52.832;4.758;2024-01-15T03:42:08;11.53;;;2.07;;
11614;SDS011;5863;52.832;4.758;2024-01-15T03:44:35;11.67;;;1.73;;
11614;SDS011;5863;52.832;4.758;2024-01-15T03:47:02;10.07;;;1.77;;
11614;SDS011;5863;52.832;4.758;2024-01-15T03:49:30;12.67;;;1.90;;
11614;SDS011;5863;52.832;4.758;2024-01-15T03:51:57;7.00;;;1.63;;
11614;SDS011;5863;52.832;4.758;2024-01-15T03:54:24;5.90;;;1.87;;
11614;SDS011;5863;52.832;4.758;2024-01-15T03:56:51;13.63;;;1.90;;
11614;SDS011;5863;52.832;4.758;2024-01-15T03:59:18;13.67;;;2.53;;
11614;SDS011;5863;52.832;4.758;2024-01-15T04:01:48;9.03;;;2.20;;
11614;SDS011;5863;52.832;4.758;2024-01-15T04:04:16;10.03;;;1.53;;
11614;SDS011;5863;52.832;4.758;2024-01-15T04:06:44;4.77;;;1.57;;
11614;SDS011;5863;52.832;4.758;2024-01-15T04:09:11;8.67;;;1.43;;
11614;SDS011;5863;52.832;4.758;2024-01-15T04:11:39;11.33;;;1.77;;
11614;SDS011;5863;52.832;4.758;2024-01-15T04:14:06;6.53;;;1.80;;
11614;SDS011;5863;52.832;4.758;2024-01-15T04:16:33;9.17;;;1.83;;
11614;SDS011;5863;52.832;4.758;2024-01-15T04:19:00;7.23;;;1.40;;
11614;SDS011;5863;52.832;4.758;2024-01-15T04:21:26;7.23;;;1.90;;
11614;SDS011;5863;52.832;4.758;2024-01-15T04:23:55;10.37;;;1.90;;
11614;SDS011;5863;52.832;4.758;2024-01-15T04:26:21;8.23;;;1.73;;
11614;SDS011;5863;52.832;4.758;2024-01-15T04:28:48;14.80;;;2.47;;
11614;SDS011;5863;52.832;4.758;2024-01-15T04:31:22;13.37;;;1.90;;
11614;SDS011;5863;52.832;4.758;2024-01-15T04:33:49;10.23;;;2.00;;
11614;SDS011;5863;52.832;4.758;2024-01-15T04:36:16;16.53;;;2.60;;
11614;SDS011;5863;52.832;4.758;2024-01-15T04:38:43;8.17;;;1.90;;
11614;SDS011;5863;52.832;4.758;2024-01-15T04:41:12;7.10;;;1.90;;
11614;SDS011;5863;52.832;4.758;2024-01-15T04:43:39;6.67;;;1.50;;
11614;SDS011;5863;52.832;4.758;2024-01-15T04:46:06;6.10;;;1.40;;
11614;SDS011;5863;52.832;4.758;2024-01-15T04:48:33;10.37;;;2.00;;
11614;SDS011;5863;52.832;4.758;2024-01-15T04:51:00;11.93;;;2.10;;
11614;SDS011;5863;52.832;4.758;2024-01-15T04:53:26;10.03;;;1.73;;
11614;SDS011;5863;52.832;4.758;2024-01-15T04:55:53;8.10;;;2.20;;
11614;SDS011;5863;52.832;4.758;2024-01-15T04:58:21;5.63;;;1.97;;
11614;SDS011;5863;52.832;4.758;2024-01-15T05:00:50;10.53;;;1.87;;
11614;SDS011;5863;52.832;4.758;2024-01-15T05:03:17;16.70;;;2.27;;
11614;SDS011;5863;52.832;4.758;2024-01-15T05:05:45;10.03;;;1.80;;
11614;SDS011;5863;52.832;4.758;2024-01-15T05:08:11;10.33;;;2.50;;
11614;SDS011;5863;52.832;4.758;2024-01-15T05:10:38;8.47;;;1.70;;
11614;SDS011;5863;52.832;4.758;2024-01-15T05:13:05;13.37;;;2.03;;
11614;SDS011;5863;52.832;4.758;2024-01-15T05:15:33;10.73;;;2.40;;
11614;SDS011;5863;52.832;4.758;2024-01-15T05:18:00;7.87;;;2.47;;
11614;SDS011;5863;52.832;4.758;2024-01-15T05:20:27;8.13;;;1.97;;
11614;SDS011;5863;52.832;4.758;2024-01-15T05:22:54;8.83;;;2.03;;
11614;SDS011;5863;52.832;4.758;2024-01-15T05:25:21;13.40;;;2.17;;
11614;SDS011;5863;52.832;4.758;2024-01-15T05:27:47;5.77;;;2.00;;
11614;SDS011;5863;52.832;4.758;2024-01-15T05:30:14;8.00;;;1.70;;
11614;SDS011;5863;52.832;4.758;2024-01-15T05:32:43;16.13;;;1.90;;
11614;SDS011;5863;52.832;4.758;2024-01-15T05:35:10;7.97;;;1.83;;
11614;SDS011;5863;52.832;4.758;2024-01-15T05:37:38;17.10;;;2.17;;
11614;SDS011;5863;52.832;4.758;2024-01-15T05:40:08;9.43;;;2.00;;
11614;SDS011;5863;52.832;4.758;2024-01-15T05:42:35;15.17;;;2.50;;
11614;SDS011;5863;52.832;4.758;2024-01-15T05:45:02;13.27;;;2.93;;
11614;SDS011;5863;52.832;4.758;2024-01-15T05:47:30;8.33;;;2.03;;
11614;SDS011;5863;52.832;4.758;2024-01-15T05:49:58;12.47;;;1.93;;
11614;SDS011;5863;52.832;4.758;2024-01-15T05:52:26;11.17;;;2.17;;
11614;SDS011;5863;52.832;4.758;2024-01-15T05:54:53;12.37;;;2.20;;
11614;SDS011;5863;52.832;4.758;2024-01-15T05:57:20;7.67;;;1.60;;
11614;SDS011;5863;52.832;4.758;2024-01-15T05:59:47;13.37;;;2.20;;
11614;SDS011;5863;52.832;4.758;2024-01-15T06:02:13;11.40;;;2.50;;
11614;SDS011;5863;52.832;4.758;2024-01-15T06:04:40;15.80;;;2.50;;
11614;SDS011;5863;52.832;4.758;2024-01-15T06:07:08;8.60;;;2.00;;
11614;SDS011;5863;52.832;4.758;2024-01-15T06:09:35;15.73;;;2.47;;
11614;SDS011;5863;52.832;4.758;2024-01-15T06:12:03;10.73;;;2.30;;
11614;SDS011;5863;52.832;4.758;2024-01-15T06:14:31;11.17;;;2.20;;
11614;SDS011;5863;52.832;4.758;2024-01-15T06:16:57;12.73;;;2.10;;
11614;SDS011;5863;52.832;4.758;2024-01-15T06:19:24;17.23;;;2.17;;
11614;SDS011;5863;52.832;4.758;2024-01-15T06:21:51;14.57;;;2.60;;
11614;SDS011;5863;52.832;4.758;2024-01-15T06:24:19;11.40;;;2.50;;
11614;SDS011;5863;52.832;4.758;2024-01-15T06:26:46;10.63;;;1.70;;
11614;SDS011;5863;52.832;4.758;2024-01-15T06:29:13;5.77;;;1.70;;
11614;SDS011;5863;52.832;4.758;2024-01-15T06:31:40;7.23;;;2.07;;
11614;SDS011;5863;52.832;4.758;2024-01-15T06:34:07;8.37;;;1.80;;
11614;SDS011;5863;52.832;4.758;2024-01-15T06:36:34;8.47;;;1.93;;
11614;SDS011;5863;52.832;4.758;2024-01-15T06:39:01;12.33;;;2.20;;
11614;SDS011;5863;52.832;4.758;2024-01-15T06:41:29;6.87;;;2.03;;
11614;SDS011;5863;52.832;4.758;2024-01-15T06:43:56;14.50;;;1.87;;
11614;SDS011;5863;52.832;4.758;2024-01-15T06:46:23;8.10;;;2.00;;
11614;SDS011;5863;52.832;4.758;2024-01-15T06:48:50;9.70;;;1.73;;
11614;SDS011;5863;52.832;4.758;2024-01-15T06:51:17;11.23;;;1.93;;
11614;SDS011;5863;52.832;4.758;2024-01-15T06:53:44;6.03;;;2.13;;
11614;SDS011;5863;52.832;4.758;2024-01-15T06:56:11;10.83;;;2.23;;
11614;SDS011;5863;52.832;4.758;2024-01-15T06:58:39;12.10;;;2.10;;
11614;SDS011;5863;52.832;4.758;2024-01-15T07:01:06;13.20;;;2.30;;
11614;SDS011;5863;52.832;4.758;2024-01-15T07:03:33;9.20;;;2.77;;
11614;SDS011;5863;52.832;4.758;2024-01-15T07:06:00;13.83;;;2.63;;
11614;SDS011;5863;52.832;4.758;2024-01-15T07:08:27;9.07;;;1.73;;
11614;SDS011;5863;52.832;4.758;2024-01-15T07:10:54;5.33;;;1.67;;
11614;SDS011;5863;52.832;4.758;2024-01-15T07:13:20;5.10;;;1.60;;
11614;SDS011;5863;52.832;4.758;2024-01-15T07:15:49;8.53;;;2.03;;
11614;SDS011;5863;52.832;4.758;2024-01-15T07:18:16;9.67;;;2.00;;
11614;SDS011;5863;52.832;4.758;2024-01-15T07:20:43;8.67;;;1.80;;
11614;SDS011;5863;52.832;4.758;2024-01-15T07:23:10;6.20;;;1.77;;
11614;SDS011;5863;52.832;4.758;2024-01-15T07:25:37;10.97;;;2.07;;
11614;SDS011;5863;52.832;4.758;2024-01-15T07:28:04;13.10;;;2.73;;
11614;SDS011;5863;52.832;4.758;2024-01-15T07:30:31;10.87;;;2.17;;
11614;SDS011;5863;52.832;4.758;2024-01-15T07:32:59;10.67;;;1.80;;
11614;SDS011;5863;52.832;4.758;2024-01-15T07:35:26;6.93;;;1.80;;
11614;SDS011;5863;52.832;4.758;2024-01-15T07:37:53;10.40;;;2.30;;
11614;SDS011;5863;52.832;4.758;2024-01-15T07:40:20;9.57;;;1.80;;
11614;SDS011;5863;52.832;4.758;2024-01-15T07:42:47;9.50;;;2.47;;
11614;SDS011;5863;52.832;4.758;2024-01-15T07:45:14;9.30;;;2.13;;
11614;SDS011;5863;52.832;4.758;2024-01-15T07:47:41;12.50;;;2.33;;
11614;SDS011;5863;52.832;4.758;2024-01-15T07:50:09;9.53;;;2.07;;
11614;SDS011;5863;52.832;4.758;2024-01-15T07:52:36;16.43;;;2.43;;
11614;SDS011;5863;52.832;4.758;2024-01-15T07:55:03;10.97;;;2.00;;
11614;SDS011;5863;52.832;4.758;2024-01-15T07:57:31;8.30;;;2.00;;
11614;SDS011;5863;52.832;4.758;2024-01-15T07:59:57;12.97;;;1.87;;
11614;SDS011;5863;52.832;4.758;2024-01-15T08:02:24;8.47;;;1.90;;
11614;SDS011;5863;52.832;4.758;2024-01-15T08:04:51;7.83;;;1.90;;
11614;SDS011;5863;52.832;4.758;2024-01-15T08:07:19;9.27;;;1.60;;
11614;SDS011;5863;52.832;4.758;2024-01-15T08:09:46;6.97;;;1.87;;
11614;SDS011;5863;52.832;4.758;2024-01-15T08:12:14;10.30;;;1.83;;
11614;SDS011;5863;52.832;4.758;2024-01-15T08:14:41;7.50;;;1.70;;
11614;SDS011;5863;52.832;4.758;2024-01-15T08:17:07;9.80;;;2.13;;
11614;SDS011;5863;52.832;4.758;2024-01-15T08:19:34;6.77;;;1.70;;
11614;SDS011;5863;52.832;4.758;2024-01-15T08:22:01;6.23;;;1.63;;
11614;SDS011;5863;52.832;4.758;2024-01-15T08:24:30;7.83;;;1.73;;
11614;SDS011;5863;52.832;4.758;2024-01-15T08:26:57;7.33;;;2.30;;
11614;SDS011;5863;52.832;4.758;2024-01-15T08:29:24;13.23;;;2.60;;
11614;SDS011;5863;52.832;4.758;2024-01-15T08:31:50;4.20;;;1.80;;
11614;SDS011;5863;52.832;4.758;2024-01-15T08:34:17;7.70;;;2.10;;
11614;SDS011;5863;52.832;4.758;2024-01-15T08:36:44;7.50;;;1.67;;
11614;SDS011;5863;52.832;4.758;2024-01-15T08:39:11;11.27;;;2.17;;
11614;SDS011;5863;52.832;4.758;2024-01-15T08:41:39;10.40;;;1.70;;
11614;SDS011;5863;52.832;4.758;2024-01-15T08:44:07;8.70;;;2.23;;
11614;SDS011;5863;52.832;4.758;2024-01-15T08:46:34;10.70;;;2.17;;
11614;SDS011;5863;52.832;4.758;2024-01-15T08:49:00;8.47;;;2.00;;
11614;SDS011;5863;52.832;4.758;2024-01-15T08:51:28;5.33;;;1.83;;
11614;SDS011;5863;52.832;4.758;2024-01-15T08:53:55;6.87;;;1.47;;
11614;SDS011;5863;52.832;4.758;2024-01-15T08:56:22;8.07;;;1.67;;
11614;SDS011;5863;52.832;4.758;2024-01-15T08:58:53;10.33;;;2.07;;
11614;SDS011;5863;52.832;4.758;2024-01-15T09:01:20;8.13;;;2.10;;
11614;SDS011;5863;52.832;4.758;2024-01-15T09:03:48;6.90;;;1.90;;
11614;SDS011;5863;52.832;4.758;2024-01-15T09:06:15;8.33;;;1.73;;
11614;SDS011;5863;52.832;4.758;2024-01-15T09:08:41;9.27;;;2.07;;
11614;SDS011;5863;52.832;4.758;2024-01-15T09:11:08;11.53;;;2.73;;
11614;SDS011;5863;52.832;4.758;2024-01-15T09:13:35;8.10;;;1.87;;
11614;SDS011;5863;52.832;4.758;2024-01-15T09:16:04;6.57;;;1.23;;
11614;SDS011;5863;52.832;4.758;2024-01-15T09:18:30;8.33;;;1.53;;
11614;SDS011;5863;52.832;4.758;2024-01-15T09:20:57;2.70;;;1.20;;
11614;SDS011;5863;52.832;4.758;2024-01-15T09:23:25;5.50;;;1.40;;
11614;SDS011;5863;52.832;4.758;2024-01-15T09:25:52;5.23;;;1.33;;
11614;SDS011;5863;52.832;4.758;2024-01-15T09:28:18;4.33;;;1.60;;
11614;SDS011;5863;52.832;4.758;2024-01-15T09:30:45;6.47;;;1.20;;
11614;SDS011;5863;52.832;4.758;2024-01-15T09:33:13;6.57;;;1.87;;
11614;SDS011;5863;52.832;4.758;2024-01-15T09:35:40;7.53;;;1.60;;
11614;SDS011;5863;52.832;4.758;2024-01-15T09:38:07;6.90;;;1.40;;
11614;SDS011;5863;52.832;4.758;2024-01-15T09:40:34;8.30;;;1.60;;
11614;SDS011;5863;52.832;4.758;2024-01-15T09:43:05;5.07;;;1.33;;
11614;SDS011;5863;52.832;4.758;2024-01-15T09:45:32;6.13;;;1.40;;
11614;SDS011;5863;52.832;4.758;2024-01-15T09:47:59;9.57;;;1.57;;
11614;SDS011;5863;52.832;4.758;2024-01-15T09:50:27;6.93;;;1.90;;
11614;SDS011;5863;52.832;4.758;2024-01-15T09:52:54;5.43;;;1.57;;
11614;SDS011;5863;52.832;4.758;2024-01-15T09:55:22;9.10;;;1.67;;
11614;SDS011;5863;52.832;4.758;2024-01-15T09:57:49;11.13;;;1.63;;
11614;SDS011;5863;52.832;4.758;2024-01-15T10:00:17;4.30;;;1.43;;
11614;SDS011;5863;52.832;4.758;2024-01-15T10:02:44;8.97;;;1.70;;
11614;SDS011;5863;52.832;4.758;2024-01-15T10:05:11;5.37;;;1.60;;
11614;SDS011;5863;52.832;4.758;2024-01-15T10:07:40;6.20;;;1.23;;
11614;SDS011;5863;52.832;4.758;2024-01-15T10:10:07;2.33;;;1.40;;
11614;SDS011;5863;52.832;4.758;2024-01-15T10:12:34;8.17;;;1.60;;
11614;SDS011;5863;52.832;4.758;2024-01-15T10:15:02;6.73;;;1.60;;
11614;SDS011;5863;52.832;4.758;2024-01-15T10:17:29;10.50;;;2.30;;
11614;SDS011;5863;52.832;4.758;2024-01-15T10:19:57;7.93;;;2.13;;
11614;SDS011;5863;52.832;4.758;2024-01-15T10:22:23;5.70;;;1.90;;
11614;SDS011;5863;52.832;4.758;2024-01-15T10:24:53;8.30;;;2.03;;
11614;SDS011;5863;52.832;4.758;2024-01-15T10:27:20;7.33;;;1.83;;
11614;SDS011;5863;52.832;4.758;2024-01-15T10:29:46;10.07;;;2.10;;
11614;SDS011;5863;52.832;4.758;2024-01-15T10:32:13;18.50;;;2.73;;
11614;SDS011;5863;52.832;4.758;2024-01-15T10:34:40;5.70;;;2.17;;
11614;SDS011;5863;52.832;4.758;2024-01-15T10:37:07;8.80;;;2.23;;
11614;SDS011;5863;52.832;4.758;2024-01-15T10:39:35;8.87;;;2.03;;
11614;SDS011;5863;52.832;4.758;2024-01-15T10:42:05;12.50;;;2.50;;
11614;SDS011;5863;52.832;4.758;2024-01-15T10:44:32;10.47;;;2.17;;
11614;SDS011;5863;52.832;4.758;2024-01-15T10:46:59;8.63;;;1.97;;
11614;SDS011;5863;52.832;4.758;2024-01-15T10:49:26;5.93;;;1.73;;
11614;SDS011;5863;52.832;4.758;2024-01-15T10:51:55;9.27;;;2.10;;
11614;SDS011;5863;52.832;4.758;2024-01-15T10:54:23;9.10;;;1.80;;
11614;SDS011;5863;52.832;4.758;2024-01-15T10:56:50;6.93;;;1.70;;
11614;SDS011;5863;52.832;4.758;2024-01-15T10:59:20;10.20;;;1.93;;
11614;SDS011;5863;52.832;4.758;2024-01-15T11:01:48;3.77;;;1.50;;
11614;SDS011;5863;52.832;4.758;2024-01-15T11:04:18;5.77;;;1.13;;
11614;SDS011;5863;52.832;4.758;2024-01-15T11:06:45;6.40;;;1.20;;
11614;SDS011;5863;52.832;4.758;2024-01-15T11:09:15;5.17;;;1.50;;
11614;SDS011;5863;52.832;4.758;2024-01-15T11:11:43;4.83;;;1.00;;
11614;SDS011;5863;52.832;4.758;2024-01-15T11:14:12;5.60;;;1.43;;
11614;SDS011;5863;52.832;4.758;2024-01-15T11:17:04;5.63;;;1.43;;
11614;SDS011;5863;52.832;4.758;2024-01-15T11:19:37;5.47;;;1.07;;
11614;SDS011;5863;52.832;4.758;2024-01-15T11:22:08;7.40;;;1.63;;
11614;SDS011;5863;52.832;4.758;2024-01-15T11:24:37;5.23;;;1.33;;
11614;SDS011;5863;52.832;4.758;2024-01-15T11:27:04;6.83;;;1.67;;
11614;SDS011;5863;52.832;4.758;2024-01-15T11:29:32;3.43;;;1.10;;
11614;SDS011;5863;52.832;4.758;2024-01-15T11:32:02;8.73;;;1.70;;
11614;SDS011;5863;52.832;4.758;2024-01-15T11:37:17;4.30;;;1.40;;
11614;SDS011;5863;52.832;4.758;2024-01-15T11:39:45;5.50;;;1.80;;
11614;SDS011;5863;52.832;4.758;2024-01-15T11:42:13;7.00;;;1.70;;
11614;SDS011;5863;52.832;4.758;2024-01-15T11:44:40;11.80;;;1.80;;
11614;SDS011;5863;52.832;4.758;2024-01-15T11:47:10;8.23;;;1.63;;
11614;SDS011;5863;52.832;4.758;2024-01-15T11:49:53;7.83;;;2.23;;
11614;SDS011;5863;52.832;4.758;2024-01-15T11:52:26;10.20;;;2.53;;
11614;SDS011;5863;52.832;4.758;2024-01-15T11:55:00;15.53;;;2.80;;
11614;SDS011;5863;52.832;4.758;2024-01-15T11:57:33;16.73;;;2.83;;
11614;SDS011;5863;52.832;4.758;2024-01-15T12:00:08;8.33;;;2.30;;
11614;SDS011;5863;52.832;4.758;2024-01-15T12:02:38;12.63;;;2.30;;
11614;SDS011;5863;52.832;4.758;2024-01-15T12:05:06;8.87;;;2.20;;
11614;SDS011;5863;52.832;4.758;2024-01-15T12:07:34;10.37;;;2.83;;
11614;SDS011;5863;52.832;4.758;2024-01-15T12:10:01;9.27;;;2.53;;
11614;SDS011;5863;52.832;4.758;2024-01-15T12:12:30;11.33;;;2.73;;
11614;SDS011;5863;52.832;4.758;2024-01-15T12:15:04;11.37;;;2.33;;
11614;SDS011;5863;52.832;4.758;2024-01-15T12:17:31;13.40;;;3.00;;
11614;SDS011;5863;52.832;4.758;2024-01-15T12:19:59;12.33;;;2.40;;
11614;SDS011;5863;52.832;4.758;2024-01-15T12:22:26;7.73;;;2.13;;
11614;SDS011;5863;52.832;4.758;2024-01-15T12:24:53;14.60;;;3.00;;
11614;SDS011;5863;52.832;4.758;2024-01-15T12:27:20;10.03;;;3.10;;
11614;SDS011;5863;52.832;4.758;2024-01-15T12:29:47;14.20;;;2.67;;
11614;SDS011;5863;52.832;4.758;2024-01-15T12:32:14;12.43;;;3.13;;
11614;SDS011;5863;52.832;4.758;2024-01-15T12:34:41;11.97;;;2.53;;
11614;SDS011;5863;52.832;4.758;2024-01-15T12:37:11;14.67;;;2.70;;
11614;SDS011;5863;52.832;4.758;2024-01-15T12:39:37;7.37;;;1.80;;
11614;SDS011;5863;52.832;4.758;2024-01-15T12:42:04;10.77;;;2.30;;
11614;SDS011;5863;52.832;4.758;2024-01-15T12:44:32;9.10;;;1.97;;
11614;SDS011;5863;52.832;4.758;2024-01-15T12:46:57;9.63;;;2.53;;
11614;SDS011;5863;52.832;4.758;2024-01-15T12:49:24;6.50;;;2.17;;
11614;SDS011;5863;52.832;4.758;2024-01-15T12:51:52;11.03;;;2.53;;
11614;SDS011;5863;52.832;4.758;2024-01-15T12:54:20;10.53;;;2.23;;
11614;SDS011;5863;52.832;4.758;2024-01-15T12:56:49;11.67;;;2.80;;
11614;SDS011;5863;52.832;4.758;2024-01-15T12:59:16;14.53;;;2.90;;
11614;SDS011;5863;52.832;4.758;2024-01-15T13:01:43;14.73;;;3.23;;
11614;SDS011;5863;52.832;4.758;2024-01-15T13:04:11;11.43;;;2.70;;
11614;SDS011;5863;52.832;4.758;2024-01-15T13:06:46;12.63;;;2.50;;
11614;SDS011;5863;52.832;4.758;2024-01-15T13:09:14;15.73;;;2.83;;
11614;SDS011;5863;52.832;4.758;2024-01-15T13:11:44;17.63;;;3.93;;
11614;SDS011;5863;52.832;4.758;2024-01-15T13:14:11;13.00;;;2.90;;
11614;SDS011;5863;52.832;4.758;2024-01-15T13:16:38;15.50;;;3.33;;
11614;SDS011;5863;52.832;4.758;2024-01-15T13:19:06;13.43;;;2.60;;
11614;SDS011;5863;52.832;4.758;2024-01-15T13:21:34;12.83;;;2.73;;
11614;SDS011;5863;52.832;4.758;2024-01-15T13:24:01;9.93;;;2.20;;
11614;SDS011;5863;52.832;4.758;2024-01-15T13:26:30;16.73;;;3.00;;
11614;SDS011;5863;52.832;4.758;2024-01-15T13:28:59;15.10;;;2.80;;
11614;SDS011;5863;52.832;4.758;2024-01-15T13:31:26;13.50;;;2.20;;
11614;SDS011;5863;52.832;4.758;2024-01-15T13:33:53;13.23;;;2.47;;
11614;SDS011;5863;52.832;4.758;2024-01-15T13:36:20;15.17;;;2.47;;
11614;SDS011;5863;52.832;4.758;2024-01-15T13:38:48;10.13;;;2.30;;
11614;SDS011;5863;52.832;4.758;2024-01-15T13:41:15;11.30;;;2.10;;
11614;SDS011;5863;52.832;4.758;2024-01-15T13:43:43;10.80;;;2.07;;
11614;SDS011;5863;52.832;4.758;2024-01-15T13:46:12;11.20;;;2.10;;
11614;SDS011;5863;52.832;4.758;2024-01-15T13:48:39;11.30;;;2.27;;
11614;SDS011;5863;52.832;4.758;2024-01-15T13:51:05;11.10;;;2.07;;
11614;SDS011;5863;52.832;4.758;2024-01-15T13:53:32;7.07;;;2.07;;
11614;SDS011;5863;52.832;4.758;2024-01-15T13:55:59;9.53;;;1.90;;
11614;SDS011;5863;52.832;4.758;2024-01-15T13:58:26;7.53;;;2.03;;
11614;SDS011;5863;52.832;4.758;2024-01-15T14:00:53;11.63;;;2.60;;
11614;SDS011;5863;52.832;4.758;2024-01-15T14:03:21;8.23;;;2.20;;
11614;SDS011;5863;52.832;4.758;2024-01-15T14:05:48;9.50;;;2.07;;
11614;SDS011;5863;52.832;4.758;2024-01-15T14:08:16;7.73;;;1.80;;
11614;SDS011;5863;52.832;4.758;2024-01-15T14:10:43;9.17;;;1.83;;
11614;SDS011;5863;52.832;4.758;2024-01-15T14:13:10;8.37;;;2.20;;
11614;SDS011;5863;52.832;4.758;2024-01-15T14:15:37;4.97;;;1.33;;
11614;SDS011;5863;52.832;4.758;2024-01-15T14:18:04;3.77;;;1.30;;
11614;SDS011;5863;52.832;4.758;2024-01-15T14:20:32;4.03;;;1.33;;
11614;SDS011;5863;52.832;4.758;2024-01-15T14:22:59;7.60;;;1.70;;
11614;SDS011;5863;52.832;4.758;2024-01-15T14:25:26;7.93;;;1.63;;
11614;SDS011;5863;52.832;4.758;2024-01-15T14:27:53;9.00;;;2.17;;
11614;SDS011;5863;52.832;4.758;2024-01-15T14:30:20;8.20;;;2.00;;
11614;SDS011;5863;52.832;4.758;2024-01-15T14:32:47;7.73;;;1.90;;
11614;SDS011;5863;52.832;4.758;2024-01-15T14:35:13;4.60;;;1.40;;
11614;SDS011;5863;52.832;4.758;2024-01-15T14:37:42;4.37;;;1.17;;
11614;SDS011;5863;52.832;4.758;2024-01-15T14:40:09;2.90;;;1.00;;
11614;SDS011;5863;52.832;4.758;2024-01-15T14:42:37;3.77;;;0.87;;
11614;SDS011;5863;52.832;4.758;2024-01-15T14:45:04;2.33;;;0.90;;
11614;SDS011;5863;52.832;4.758;2024-01-15T14:47:36;4.07;;;1.57;;
11614;SDS011;5863;52.832;4.758;2024-01-15T14:50:03;2.00;;;0.93;;
11614;SDS011;5863;52.832;4.758;2024-01-15T14:52:31;3.47;;;1.10;;
11614;SDS011;5863;52.832;4.758;2024-01-15T14:55:00;5.37;;;1.53;;
11614;SDS011;5863;52.832;4.758;2024-01-15T14:57:27;13.43;;;2.03;;
11614;SDS011;5863;52.832;4.758;2024-01-15T14:59:55;7.57;;;1.63;;